Search for airport 
image banner adimage banner adimage banner ad
image banner ad

CL12 - St Vincent Professional Office Building

Located in Los Angeles, United States

ICAO - CL12, IATA -

Data provided by Airmate  

General information

Coordinates: N34°3'50" W118°16'21"
Elevation is 464 feet MSL.
Magnetic variation is 14° East
View others Airports in California

Operational data

Special qualification required
Current time UTC:
Current local time:
METAR: KHHR 211253Z 25004KT 9SM OVC011 17/14 A2996 RMK AO2 SLP146 T01720139
View NOTAMs / SUP AIP / TFR affecting this airport [VIEW]
Communications frequencies: [VIEW]

Runways:

Airport contact information

Address: Los Angeles United States

Satellite view of CL12